createdAt,value
2022-08-22T00:03:18.627Z,99.90
2022-08-22T00:05:46.212Z,99.90
2022-08-22T00:12:07.088Z,99.90
2022-08-22T00:26:45.586Z,99.90
2022-08-22T00:33:44.273Z,99.90
2022-08-22T00:44:29.431Z,99.90
2022-08-22T00:55:18.292Z,99.90
2022-08-22T00:58:32.946Z,99.90
2022-08-22T01:09:09.621Z,99.90
2022-08-22T01:15:29.954Z,99.90
2022-08-22T01:22:24.891Z,99.90
2022-08-22T01:29:18.799Z,99.90
2022-08-22T01:40:08.908Z,99.90
2022-08-22T01:46:59.759Z,99.90
2022-08-22T02:04:58.726Z,99.90
2022-08-22T02:11:56.054Z,99.90
2022-08-22T02:19:09.927Z,99.90
2022-08-22T02:34:01.954Z,99.90
2022-08-22T02:36:53.828Z,99.90
2022-08-22T02:43:27.418Z,99.90
2022-08-22T02:58:04.118Z,99.90
2022-08-22T03:00:47.451Z,99.90
2022-08-22T03:07:35.449Z,99.80
2022-08-22T03:14:08.534Z,99.90
2022-08-22T03:24:31.403Z,99.90
2022-08-22T03:30:51.567Z,97.20
2022-08-22T03:33:56.096Z,92.80
2022-08-22T04:04:59.727Z,97.00
2022-08-22T04:08:03.301Z,99.90
2022-08-22T04:10:39.743Z,99.90
2022-08-22T04:13:25.232Z,99.90
2022-08-22T04:16:12.000Z,99.90
2022-08-22T04:19:03.484Z,99.90
2022-08-22T04:21:58.158Z,99.90
2022-08-22T04:24:27.794Z,99.90
2022-08-22T04:27:03.101Z,99.90
2022-08-22T04:29:42.883Z,99.90
2022-08-22T04:32:28.930Z,99.90
2022-08-22T04:35:18.851Z,99.90
2022-08-22T04:37:53.639Z,99.90
2022-08-22T04:40:24.057Z,99.90
2022-08-22T04:42:58.272Z,99.90
2022-08-22T04:45:47.980Z,99.90
2022-08-22T04:48:49.752Z,99.90
2022-08-22T04:51:45.441Z,99.90
2022-08-22T04:54:31.092Z,99.90
2022-08-22T04:57:25.151Z,99.90
2022-08-22T04:59:58.110Z,99.90
2022-08-22T05:02:27.929Z,99.90
2022-08-22T05:05:04.253Z,99.90
2022-08-22T05:07:37.250Z,99.90
2022-08-22T05:10:26.027Z,99.90
2022-08-22T05:13:02.207Z,99.90
2022-08-22T05:15:34.452Z,99.90
2022-08-22T05:18:10.530Z,99.90
2022-08-22T05:20:40.089Z,99.90
2022-08-22T05:23:32.787Z,99.90
2022-08-22T05:26:04.224Z,99.90
2022-08-22T05:28:41.455Z,99.90
2022-08-22T05:31:33.499Z,99.90
2022-08-22T05:34:04.862Z,99.90
2022-08-22T05:36:40.298Z,99.90
2022-08-22T05:39:25.209Z,99.90
2022-08-22T05:45:01.866Z,99.90
2022-08-22T05:47:39.443Z,99.90
2022-08-22T05:57:38.149Z,99.90
2022-08-22T06:04:09.943Z,99.90
2022-08-22T06:10:29.880Z,99.90
2022-08-22T06:20:39.555Z,99.90
2022-08-22T06:23:28.331Z,99.90
2022-08-22T06:30:21.850Z,99.90
2022-08-22T06:36:54.691Z,99.90
2022-08-22T06:43:14.152Z,99.90
2022-08-22T06:49:30.305Z,99.90
2022-08-22T06:52:01.797Z,99.90
2022-08-22T06:54:34.779Z,99.90
2022-08-22T06:57:37.018Z,99.90
2022-08-22T07:00:26.489Z,99.90
2022-08-22T07:02:58.860Z,99.90
2022-08-22T07:05:34.816Z,99.90
2022-08-22T07:08:08.535Z,99.90
2022-08-22T07:10:37.079Z,99.90
2022-08-22T07:13:39.117Z,99.90
2022-08-22T07:24:03.656Z,99.90
2022-08-22T07:30:16.382Z,99.90
2022-08-22T07:41:15.739Z,99.90
2022-08-22T07:47:39.958Z,99.90
2022-08-22T08:01:50.015Z,99.90
2022-08-22T08:04:24.856Z,99.90
2022-08-22T08:07:38.414Z,99.90
2022-08-22T08:10:13.052Z,99.90
2022-08-22T08:12:44.470Z,99.90
2022-08-22T08:15:25.752Z,99.90
2022-08-22T08:18:00.570Z,99.90
2022-08-22T08:25:21.538Z,99.90
2022-08-22T08:39:14.391Z,99.90
2022-08-22T08:45:41.617Z,99.90
2022-08-22T08:51:57.598Z,99.90
2022-08-22T08:59:02.661Z,99.90
2022-08-22T09:09:25.975Z,99.90
2022-08-22T09:24:23.608Z,99.90
2022-08-22T09:34:34.373Z,99.90
2022-08-22T09:40:13.417Z,99.90
2022-08-22T09:43:05.402Z,99.90
2022-08-22T09:46:10.212Z,99.90
2022-08-22T09:52:36.835Z,99.90
2022-08-22T09:55:16.017Z,99.90
2022-08-22T09:58:14.603Z,99.90
2022-08-22T10:00:55.144Z,99.90
2022-08-22T10:03:53.568Z,99.10
2022-08-22T10:06:27.659Z,94.90
2022-08-22T10:09:09.978Z,99.90
2022-08-22T10:12:04.915Z,98.50
2022-08-22T10:15:19.383Z,97.50
2022-08-22T10:21:25.368Z,93.60
2022-08-22T10:23:57.578Z,91.10
2022-08-22T10:26:45.982Z,92.00
2022-08-22T10:29:30.327Z,90.00
2022-08-22T10:32:19.845Z,90.60
2022-08-22T10:38:00.650Z,85.30
2022-08-22T10:41:11.662Z,81.80
2022-08-22T10:55:38.405Z,78.80
2022-08-22T10:58:26.056Z,81.40
2022-08-22T11:04:50.612Z,80.20
2022-08-22T11:07:48.605Z,78.50
2022-08-22T11:18:27.604Z,80.60
2022-08-22T11:24:35.640Z,78.50
2022-08-22T11:31:07.256Z,77.40
2022-08-22T11:33:55.818Z,77.20
2022-08-22T11:44:25.493Z,78.80
2022-08-22T11:46:57.235Z,78.50
2022-08-22T11:49:49.369Z,77.40
2022-08-22T11:56:48.975Z,80.50
2022-08-22T11:59:41.135Z,79.70
2022-08-22T12:02:47.684Z,78.10
2022-08-22T12:09:20.226Z,76.60
2022-08-22T12:12:05.051Z,78.10
2022-08-22T12:18:30.287Z,76.30
2022-08-22T12:20:57.027Z,77.10
2022-08-22T12:23:48.957Z,76.40
2022-08-22T12:26:32.887Z,76.40
2022-08-22T12:29:23.327Z,78.40
2022-08-22T12:32:03.375Z,80.30
2022-08-22T12:34:50.815Z,76.60
2022-08-22T12:37:20.259Z,76.80
2022-08-22T12:40:21.071Z,80.50
2022-08-22T12:43:47.083Z,80.70
2022-08-22T12:46:46.759Z,82.60
2022-08-22T12:49:27.114Z,82.90
2022-08-22T12:52:21.977Z,82.20
2022-08-22T12:55:13.483Z,85.40
2022-08-22T12:57:46.267Z,82.00
2022-08-22T13:00:27.074Z,82.40
2022-08-22T13:03:00.345Z,81.10
2022-08-22T13:05:30.645Z,81.20
2022-08-22T13:08:10.038Z,80.60
2022-08-22T13:10:51.138Z,81.10
2022-08-22T13:13:37.075Z,81.90
2022-08-22T13:16:17.186Z,86.50
2022-08-22T13:18:53.865Z,86.70
2022-08-22T13:21:36.005Z,89.80
2022-08-22T13:28:10.447Z,83.00
2022-08-22T13:34:50.071Z,83.60
2022-08-22T13:41:05.143Z,88.30
2022-08-22T13:44:09.278Z,88.70
2022-08-22T13:47:40.026Z,90.70
2022-08-22T13:54:39.014Z,84.00
2022-08-22T14:16:47.295Z,83.00
2022-08-22T14:23:10.489Z,85.60
2022-08-22T14:25:41.312Z,84.80
2022-08-22T14:28:28.362Z,81.80
2022-08-22T14:31:08.503Z,83.40
2022-08-22T14:33:48.412Z,85.30
2022-08-22T14:39:30.032Z,84.40
2022-08-22T15:30:56.734Z,87.50
2022-08-22T15:37:19.189Z,87.70
2022-08-22T15:44:40.108Z,85.60
2022-08-22T16:01:19.119Z,89.90
2022-08-22T16:11:33.715Z,91.80
2022-08-22T16:14:23.597Z,93.70
2022-08-22T16:16:56.879Z,92.70
2022-08-22T16:19:27.231Z,92.90
2022-08-22T16:21:54.194Z,92.60
2022-08-22T16:24:23.868Z,92.60
2022-08-22T16:26:52.331Z,93.60
2022-08-22T16:29:41.454Z,93.70
2022-08-22T16:32:12.000Z,93.80
2022-08-22T16:34:38.951Z,94.00
2022-08-22T16:37:08.743Z,91.70
2022-08-22T16:39:48.979Z,93.90
2022-08-22T16:42:15.784Z,95.40
2022-08-22T16:44:46.981Z,95.40
2022-08-22T16:51:13.274Z,94.20
2022-08-22T16:53:45.632Z,95.20
2022-08-22T16:56:54.027Z,96.30
2022-08-22T16:59:52.536Z,95.40
2022-08-22T17:02:48.195Z,95.60
2022-08-22T17:05:28.804Z,95.90
2022-08-22T17:08:00.081Z,96.10
2022-08-22T17:10:41.965Z,96.30
2022-08-22T17:13:08.632Z,96.00
2022-08-22T17:15:53.544Z,96.00
2022-08-22T17:18:26.495Z,96.40
2022-08-22T17:21:03.307Z,96.40
2022-08-22T17:23:47.979Z,96.10
2022-08-22T17:26:38.785Z,96.00
2022-08-22T17:29:20.303Z,96.40
2022-08-22T17:31:58.949Z,98.20
2022-08-22T17:35:08.320Z,97.50
2022-08-22T17:37:54.470Z,96.70
2022-08-22T17:40:33.552Z,97.40
2022-08-22T17:43:13.485Z,97.90
2022-08-22T17:46:05.491Z,97.80
2022-08-22T17:48:38.894Z,99.00
2022-08-22T17:51:28.339Z,98.40
2022-08-22T17:54:12.548Z,97.10
2022-08-22T17:56:43.853Z,98.60
2022-08-22T17:59:22.378Z,98.70
2022-08-22T18:02:01.195Z,97.10
2022-08-22T18:04:43.300Z,98.10
2022-08-22T18:07:15.151Z,97.70
2022-08-22T18:10:00.720Z,98.00
2022-08-22T18:12:54.950Z,96.50
2022-08-22T18:15:49.431Z,97.70
2022-08-22T18:18:37.356Z,97.60
2022-08-22T18:21:27.010Z,99.40
2022-08-22T18:24:01.755Z,99.90
2022-08-22T18:27:35.157Z,99.90
2022-08-22T18:30:05.457Z,99.90
2022-08-22T18:32:40.147Z,99.90
2022-08-22T18:35:14.784Z,99.90
2022-08-22T18:37:54.864Z,99.90
2022-08-22T18:40:46.887Z,99.90
2022-08-22T18:43:35.171Z,99.90
2022-08-22T18:46:06.116Z,99.90
2022-08-22T18:49:05.498Z,99.90
2022-08-22T18:51:38.583Z,99.90
2022-08-22T18:54:05.538Z,99.90
2022-08-22T18:56:38.278Z,99.90
2022-08-22T18:59:17.128Z,99.90
2022-08-22T19:01:50.296Z,99.90
2022-08-22T19:04:23.008Z,99.90
2022-08-22T19:07:17.656Z,99.90
2022-08-22T19:09:53.741Z,99.90
2022-08-22T19:12:49.228Z,99.90
2022-08-22T19:15:47.962Z,99.90
2022-08-22T19:18:39.583Z,99.90
2022-08-22T19:21:40.356Z,99.90
2022-08-22T19:24:27.344Z,99.90
2022-08-22T19:27:23.028Z,99.90
2022-08-22T19:29:55.263Z,99.90
2022-08-22T19:32:46.896Z,99.90
2022-08-22T19:35:38.559Z,99.90
2022-08-22T19:38:08.467Z,99.90
2022-08-22T19:40:50.280Z,99.90
2022-08-22T19:43:22.939Z,99.90
2022-08-22T19:45:51.510Z,99.90
2022-08-22T19:48:28.100Z,99.90
2022-08-22T19:51:20.348Z,99.90
2022-08-22T19:54:15.926Z,99.90
2022-08-22T19:57:21.072Z,99.90
2022-08-22T20:00:00.772Z,99.90
2022-08-22T20:02:51.091Z,99.90
2022-08-22T20:05:57.515Z,99.90
2022-08-22T20:08:42.176Z,99.90
2022-08-22T20:11:14.833Z,99.90
2022-08-22T20:13:41.652Z,99.90
2022-08-22T20:16:16.619Z,99.90
2022-08-22T20:19:08.230Z,99.90
2022-08-22T20:21:43.456Z,99.90
2022-08-22T20:24:21.742Z,99.90
2022-08-22T20:27:12.953Z,99.90
2022-08-22T20:29:46.363Z,99.90
2022-08-22T20:32:16.563Z,99.90
2022-08-22T20:34:45.132Z,99.90
2022-08-22T20:37:32.408Z,99.90
2022-08-22T20:40:55.482Z,99.90
2022-08-22T20:43:37.720Z,99.90
2022-08-22T20:46:26.275Z,99.90
2022-08-22T20:48:55.906Z,99.90
2022-08-22T20:51:25.457Z,99.90
2022-08-22T20:53:54.818Z,99.90
2022-08-22T20:56:53.513Z,99.90
2022-08-22T20:59:57.695Z,99.90
2022-08-22T21:02:34.192Z,99.90
2022-08-22T21:05:00.967Z,99.90
2022-08-22T21:07:34.757Z,99.90
2022-08-22T21:10:26.756Z,99.90
2022-08-22T21:13:00.610Z,99.90
2022-08-22T21:15:43.134Z,99.90
2022-08-22T21:18:12.696Z,99.90
2022-08-22T21:20:40.531Z,99.90
2022-08-22T21:23:15.490Z,99.90
2022-08-22T21:25:58.850Z,99.90
2022-08-22T21:28:36.818Z,99.90
2022-08-22T21:31:15.878Z,99.90
2022-08-22T21:33:45.668Z,99.90
2022-08-22T21:36:16.121Z,99.90
2022-08-22T21:39:05.310Z,99.90
2022-08-22T21:41:51.609Z,99.90
2022-08-22T21:44:18.379Z,99.90
2022-08-22T21:46:45.227Z,99.90
2022-08-22T21:49:29.480Z,99.90
2022-08-22T21:51:56.610Z,99.90
2022-08-22T21:54:28.175Z,99.90
2022-08-22T21:56:57.728Z,99.90
2022-08-22T21:59:51.576Z,99.90
2022-08-22T22:02:37.387Z,99.90
2022-08-22T22:05:16.324Z,99.90
2022-08-22T22:07:46.177Z,99.90
2022-08-22T22:10:17.178Z,99.90
2022-08-22T22:12:46.743Z,99.90
2022-08-22T22:15:16.913Z,99.90
2022-08-22T22:17:44.159Z,99.90
2022-08-22T22:20:12.507Z,99.90
2022-08-22T22:22:46.216Z,99.90
2022-08-22T22:25:39.597Z,99.90
2022-08-22T22:28:04.281Z,99.90
2022-08-22T22:30:31.507Z,99.90
2022-08-22T22:32:58.330Z,99.90
2022-08-22T22:35:25.184Z,99.90
2022-08-22T22:37:51.999Z,99.90
2022-08-22T22:40:19.159Z,99.90
2022-08-22T22:42:46.015Z,99.90
2022-08-22T22:45:12.819Z,99.90
2022-08-22T22:47:39.622Z,99.90
2022-08-22T22:50:08.479Z,99.90
2022-08-22T22:52:38.439Z,99.90
2022-08-22T22:55:08.965Z,99.90
2022-08-22T22:57:42.327Z,99.90
2022-08-22T23:00:12.527Z,99.90
2022-08-22T23:02:40.710Z,99.90
2022-08-22T23:05:09.612Z,99.90
2022-08-22T23:07:37.101Z,99.90
2022-08-22T23:10:06.955Z,99.90
2022-08-22T23:12:36.599Z,99.90
2022-08-22T23:15:05.180Z,99.90
2022-08-22T23:17:32.210Z,99.90
2022-08-22T23:19:58.978Z,99.90
2022-08-22T23:22:25.892Z,99.90
2022-08-22T23:24:52.944Z,99.90
2022-08-22T23:27:19.807Z,99.90
2022-08-22T23:29:46.712Z,99.90
2022-08-22T23:32:14.527Z,99.90
2022-08-22T23:34:45.960Z,99.90
2022-08-22T23:37:16.563Z,99.90
2022-08-22T23:39:43.536Z,99.90
2022-08-22T23:42:14.927Z,99.90
2022-08-22T23:44:42.856Z,99.90
2022-08-22T23:47:10.635Z,99.90
2022-08-22T23:49:39.127Z,99.90
2022-08-22T23:52:07.318Z,99.90
2022-08-22T23:54:34.311Z,99.90
2022-08-22T23:57:03.151Z,99.90
2022-08-22T23:59:44.659Z,99.90
